Time;durP1;ratioP1;P1;durP2;ratioP2;P2;SDS_P1;SDS_P2;PMS_P1;PMS_P2;Temp;Humidity;BMP_temperature;BMP_pressure;BME280_temperature;BME280_humidity;BME280_pressure;Samples;Min_cycle;Max_cycle;Signal;HPM_P1;HPM_P2
2021/06/09 00:01:12;;;;;;;6.55;5.33;;;;;;;17.86;70.67;98912.05;1707580;83;21569;-44
2021/06/09 00:03:39;;;;;;;5.87;5.22;;;;;;;17.88;70.49;98913.77;1707735;83;21705;-43
2021/06/09 00:06:05;;;;;;;5.85;5.25;;;;;;;17.90;70.39;98914.72;1707598;84;21111;-43
2021/06/09 00:08:32;;;;;;;5.47;4.83;;;;;;;17.60;70.20;98869.80;1707613;84;21163;-45
2021/06/09 00:10:58;;;;;;;6.60;5.67;;;;;;;17.88;70.19;98907.50;1707939;83;20983;-43
2021/06/09 00:13:28;;;;;;;6.10;5.50;;;;;;;17.89;69.89;98914.54;1707791;84;21456;-43
2021/06/09 00:16:00;;;;;;;6.40;5.35;;;;;;;17.90;69.74;98908.64;1708185;83;20973;-44
2021/06/09 00:18:26;;;;;;;5.70;5.20;;;;;;;17.86;69.62;98913.42;1707206;83;21100;-43
2021/06/09 00:20:54;;;;;;;5.80;5.20;;;;;;;17.83;69.60;98905.23;1702824;83;21084;-43
2021/06/09 00:23:25;;;;;;;7.65;5.12;;;;;;;17.83;69.45;98905.23;1699800;83;21539;-43
2021/06/09 00:25:51;;;;;;;7.72;5.20;;;;;;;17.83;69.42;98905.23;1699453;84;21279;-43
2021/06/09 00:28:18;;;;;;;6.12;5.53;;;;;;;17.79;69.32;98896.48;1699577;83;21045;-43
2021/06/09 00:30:44;;;;;;;7.67;4.90;;;;;;;17.79;69.47;98896.48;1699956;84;21128;-43
2021/06/09 00:33:11;;;;;;;7.08;4.97;;;;;;;17.78;69.61;98901.79;1699595;84;21177;-44
2021/06/09 00:35:38;;;;;;;7.20;4.92;;;;;;;17.79;69.50;98899.83;1699525;84;21005;-44
2021/06/09 00:38:05;;;;;;;7.45;4.90;;;;;;;17.79;69.45;98898.45;1699721;83;21013;-44
2021/06/09 00:40:33;;;;;;;8.73;5.45;;;;;;;17.77;69.38;98904.34;1698958;84;21051;-43
2021/06/09 00:43:11;;;;;;;12.03;5.40;;;;;;;17.70;69.42;98896.27;1699781;84;21106;-43
2021/06/09 00:45:57;;;;;;;6.10;5.50;;;;;;;17.66;69.23;98905.14;1698993;84;21134;-43
2021/06/09 00:48:29;;;;;;;6.47;5.87;;;;;;;17.63;69.14;98903.22;1699473;84;21017;-43
2021/06/09 00:51:02;;;;;;;7.03;5.30;;;;;;;17.62;69.12;98899.55;1699639;84;21068;-43
2021/06/09 00:53:35;;;;;;;9.28;5.67;;;;;;;17.59;69.13;98902.51;1699677;84;21101;-43
2021/06/09 00:56:06;;;;;;;5.85;5.25;;;;;;;17.57;69.10;98906.22;1699774;84;21045;-43
2021/06/09 00:58:33;;;;;;;7.62;5.50;;;;;;;17.55;69.07;98909.99;1699795;84;21124;-43
2021/06/09 01:01:00;;;;;;;7.08;5.97;;;;;;;17.52;68.92;98905.36;1699990;84;21596;-43
2021/06/09 01:03:27;;;;;;;7.95;6.15;;;;;;;17.51;69.04;98907.91;1699809;83;21547;-43
2021/06/09 01:05:54;;;;;;;7.42;5.50;;;;;;;17.49;69.27;98913.61;1700000;84;20931;-43
2021/06/09 01:08:21;;;;;;;7.80;6.05;;;;;;;17.46;69.34;98913.09;1699895;83;21010;-43
2021/06/09 01:10:49;;;;;;;8.38;6.42;;;;;;;17.42;69.38;98909.04;1699784;84;21138;-43
2021/06/09 01:13:20;;;;;;;6.75;5.95;;;;;;;17.39;69.47;98910.63;1699695;84;21021;-43
2021/06/09 01:15:47;;;;;;;6.75;6.15;;;;;;;17.40;69.50;98922.37;1699672;84;20955;-43
2021/06/09 01:18:13;;;;;;;7.75;6.30;;;;;;;17.36;69.27;98921.06;1699627;83;21544;-43
2021/06/09 01:20:40;;;;;;;7.22;6.50;;;;;;;17.30;69.22;98916.45;1699489;84;21105;-43
2021/06/09 01:23:07;;;;;;;7.33;6.50;;;;;;;17.20;69.45;98928.34;1699730;84;21972;-43
2021/06/09 01:25:34;;;;;;;6.85;5.90;;;;;;;17.09;69.75;98926.37;1699576;84;21033;-44
2021/06/09 01:28:01;;;;;;;8.43;6.17;;;;;;;17.01;69.92;98918.84;1699677;84;21081;-43
2021/06/09 01:30:28;;;;;;;8.65;6.35;;;;;;;16.98;69.79;98929.27;1699547;84;21086;-44
2021/06/09 01:32:55;;;;;;;7.00;5.60;;;;;;;16.95;69.77;98919.89;1699195;83;21015;-43
2021/06/09 01:35:21;;;;;;;8.05;6.50;;;;;;;16.91;69.84;98920.54;1699671;83;21180;-43
2021/06/09 01:37:49;;;;;;;7.42;6.72;;;;;;;16.89;69.83;98922.91;1699852;84;20978;-44
2021/06/09 01:40:19;;;;;;;8.80;6.80;;;;;;;16.84;69.99;98923.39;1699480;84;21085;-43
2021/06/09 01:42:46;;;;;;;7.72;6.62;;;;;;;16.73;70.33;98924.11;1699829;84;21053;-43
2021/06/09 01:45:18;;;;;;;7.47;6.72;;;;;;;16.68;70.60;98927.89;1699626;84;21097;-43
2021/06/09 01:47:45;;;;;;;8.48;6.70;;;;;;;16.66;70.35;98935.14;1699907;84;21822;-43
2021/06/09 01:50:13;;;;;;;9.85;6.58;;;;;;;16.65;70.29;98930.88;1699500;84;20986;-43
2021/06/09 01:52:40;;;;;;;8.30;6.70;;;;;;;16.65;70.16;98934.98;1699836;84;21093;-43
2021/06/09 01:55:09;;;;;;;7.35;6.60;;;;;;;16.66;70.15;98938.47;1699497;84;21017;-44
2021/06/09 01:57:36;;;;;;;9.65;6.45;;;;;;;16.68;70.19;98944.32;1700005;83;21622;-43
2021/06/09 02:00:16;;;;;;;7.10;6.40;;;;;;;16.69;70.18;98944.51;1699806;84;21264;-43
2021/06/09 02:02:43;;;;;;;8.70;6.30;;;;;;;16.71;70.13;98954.44;1699903;84;21484;-43
2021/06/09 02:05:11;;;;;;;7.37;6.67;;;;;;;16.72;70.02;98949.93;1699801;84;20974;-43
2021/06/09 02:07:40;;;;;;;7.78;6.72;;;;;;;16.72;70.28;98952.67;1699719;84;21098;-44
2021/06/09 02:10:12;;;;;;;8.20;6.67;;;;;;;16.73;70.33;98951.48;1699594;84;21058;-43
2021/06/09 02:12:41;;;;;;;7.97;7.20;;;;;;;16.75;70.28;98944.99;1699857;84;21792;-43
2021/06/09 02:15:10;;;;;;;9.60;7.60;;;;;;;16.78;70.16;98942.05;1699688;84;20927;-43
2021/06/09 02:17:37;;;;;;;9.18;7.47;;;;;;;16.80;70.17;98942.39;1699725;83;21635;-43
2021/06/09 02:20:06;;;;;;;10.53;8.23;;;;;;;16.71;70.28;98948.38;1702940;83;21097;-43
2021/06/09 02:22:32;;;;;;;8.58;7.53;;;;;;;16.67;70.46;98949.02;1720083;83;21013;-43
2021/06/09 02:24:59;;;;;;;10.95;8.23;;;;;;;16.66;70.55;98951.56;1693763;83;21109;-43
2021/06/09 02:27:26;;;;;;;8.45;7.60;;;;;;;16.67;70.67;98947.65;1720279;83;20961;-43
2021/06/09 02:29:52;;;;;;;10.48;8.50;;;;;;;16.69;70.76;98944.51;1720452;83;20933;-43
2021/06/09 02:32:19;;;;;;;9.10;8.20;;;;;;;16.71;70.82;98950.33;1720199;83;21100;-43
2021/06/09 02:34:46;;;;;;;9.45;8.45;;;;;;;16.73;70.74;98948.75;1720495;83;21049;-43
2021/06/09 02:37:13;;;;;;;10.58;8.40;;;;;;;16.75;70.75;98942.88;1720384;83;21155;-44
2021/06/09 02:39:39;;;;;;;10.35;8.20;;;;;;;16.77;70.75;98946.73;1720360;83;21567;-44
2021/06/09 02:42:09;;;;;;;9.88;8.30;;;;;;;16.81;70.72;98947.47;1720507;83;21020;-43
2021/06/09 02:44:35;;;;;;;9.50;8.60;;;;;;;16.85;70.75;98946.05;1720651;83;21071;-43
2021/06/09 02:47:03;;;;;;;10.72;8.18;;;;;;;16.88;70.74;98949.34;1720613;83;21095;-44
2021/06/09 02:49:33;;;;;;;9.23;8.43;;;;;;;16.90;70.79;98946.95;1720633;83;21061;-43
2021/06/09 02:52:11;;;;;;;9.33;8.33;;;;;;;16.95;70.88;98950.02;1720655;83;21029;-43
2021/06/09 02:54:54;;;;;;;9.83;8.60;;;;;;;16.99;70.85;98951.95;1719463;83;21013;-43
2021/06/09 02:57:39;;;;;;;10.45;8.60;;;;;;;17.04;70.80;98956.97;1720683;83;20985;-44
2021/06/09 03:00:16;;;;;;;10.43;9.20;;;;;;;17.09;70.76;98951.03;1704321;83;21522;-44
2021/06/09 03:03:17;;;;;;;11.45;9.45;;;;;;;17.10;70.87;98958.03;1720597;83;21824;-43
2021/06/09 03:06:01;;;;;;;9.85;8.93;;;;;;;17.11;71.03;98960.38;1720129;83;20969;-43
2021/06/09 03:08:44;;;;;;;13.18;8.88;;;;;;;17.15;71.19;98961.68;1709389;83;21032;-43
2021/06/09 03:11:39;;;;;;;11.28;8.55;;;;;;;17.22;71.34;98967.85;1720530;83;21036;-44
2021/06/09 03:17:04;;;;;;;12.10;9.33;;;;;;;17.17;71.48;98959.31;1717590;83;21099;-44
2021/06/09 03:20:04;;;;;;;11.28;9.05;;;;;;;17.17;71.68;98964.80;1720644;83;21101;-44
2021/06/09 03:22:45;;;;;;;10.55;9.45;;;;;;;17.23;71.72;98959.05;1704009;83;21041;-43
2021/06/09 03:25:15;;;;;;;13.15;9.38;;;;;;;17.26;72.00;98960.36;1699654;84;21110;-43
2021/06/09 03:27:51;;;;;;;;;;;;;;;17.31;71.99;98959.11;1702878;83;21094;-43
2021/06/09 03:30:18;;;;;;;11.73;9.23;;;;;;;17.33;71.91;98955.38;1700092;84;21105;-43
2021/06/09 03:33:01;;;;;;;9.20;8.40;;;;;;;17.30;72.24;98954.81;1699865;84;21682;-43
2021/06/09 03:35:38;;;;;;;10.88;9.88;;;;;;;17.34;72.24;98954.16;1699960;83;21022;-43
2021/06/09 03:38:09;;;;;;;10.40;9.43;;;;;;;17.37;72.42;98953.35;1695006;84;21042;-44
2021/06/09 03:40:41;;;;;;;10.63;9.63;;;;;;;17.40;72.58;98952.52;1687168;85;21053;-43
2021/06/09 03:43:11;;;;;;;10.25;9.28;;;;;;;17.41;72.68;98954.07;1687219;85;21804;-43
2021/06/09 03:45:47;;;;;;;10.05;9.03;;;;;;;17.48;72.81;98945.72;1687663;85;21567;-43
2021/06/09 03:48:15;;;;;;;12.40;8.78;;;;;;;17.56;72.52;98950.52;1665930;85;21013;-44
2021/06/09 03:50:42;;;;;;;11.33;9.53;;;;;;;17.65;72.40;98944.71;1687412;85;21001;-43
2021/06/09 03:53:08;;;;;;;10.32;9.38;;;;;;;17.74;72.19;98940.84;1687173;85;21033;-43
2021/06/09 03:55:37;;;;;;;10.75;9.28;;;;;;;17.81;71.91;98943.44;1687012;85;22320;-43
2021/06/09 03:58:06;;;;;;;10.40;9.30;;;;;;;17.87;71.82;98949.23;1687240;85;21499;-44
2021/06/09 04:00:33;;;;;;;8.98;8.18;;;;;;;17.93;71.82;98951.67;1687647;85;21127;-44
2021/06/09 04:03:00;;;;;;;9.30;8.38;;;;;;;18.01;71.75;98957.83;1687138;85;21021;-44
2021/06/09 04:05:27;;;;;;;9.63;8.40;;;;;;;18.07;71.48;98954.77;1687072;85;21057;-43
2021/06/09 04:07:57;;;;;;;9.13;8.13;;;;;;;18.11;71.16;98963.11;1687279;85;21705;-44
2021/06/09 04:10:24;;;;;;;9.30;8.40;;;;;;;18.12;71.18;98962.52;1687572;85;21574;-44
2021/06/09 04:12:50;;;;;;;8.30;7.47;;;;;;;18.13;71.61;98961.32;1687352;85;21058;-43
2021/06/09 04:15:18;;;;;;;8.80;7.65;;;;;;;18.19;71.70;98967.88;1687279;85;21069;-43
2021/06/09 04:17:47;;;;;;;7.62;6.90;;;;;;;18.26;71.77;98967.73;1687428;85;21096;-44
2021/06/09 04:20:14;;;;;;;7.15;6.45;;;;;;;18.37;71.39;98972.44;1687491;85;21793;-44
2021/06/09 04:22:40;;;;;;;7.30;6.70;;;;;;;18.45;71.18;98976.59;1640900;85;21559;-43
2021/06/09 04:25:08;;;;;;;8.18;6.97;;;;;;;18.50;70.79;98964.34;1661923;85;21591;-43
2021/06/09 04:27:38;;;;;;;9.18;6.83;;;;;;;18.55;70.59;98962.52;1689418;85;21089;-44
2021/06/09 04:30:06;;;;;;;7.95;6.58;;;;;;;18.61;70.57;98962.20;1689743;85;21547;-43
2021/06/09 04:32:54;;;;;;;6.58;5.95;;;;;;;18.66;70.74;98966.60;1689252;85;21121;-43
2021/06/09 04:35:27;;;;;;;8.20;5.83;;;;;;;18.76;70.59;98963.47;1689363;85;21040;-44
2021/06/09 04:37:54;;;;;;;6.92;6.22;;;;;;;18.86;70.64;98965.22;1685062;85;21016;-44
2021/06/09 04:40:26;;;;;;;7.37;6.47;;;;;;;18.94;69.95;98968.58;1661824;86;21658;-43
2021/06/09 04:42:53;;;;;;;8.00;6.33;;;;;;;18.96;69.91;98971.69;1661463;86;21649;-44
2021/06/09 04:45:21;;;;;;;7.83;6.50;;;;;;;18.97;70.00;98971.87;1661520;86;21193;-43
2021/06/09 04:47:48;;;;;;;6.50;5.92;;;;;;;18.98;70.43;98973.39;1661452;86;21550;-43
2021/06/09 04:50:18;;;;;;;8.18;6.53;;;;;;;19.05;70.75;98973.25;1661782;86;21529;-44
2021/06/09 04:52:44;;;;;;;7.30;6.12;;;;;;;19.16;70.24;98979.30;1661572;86;21357;-43
2021/06/09 04:55:12;;;;;;;7.05;6.33;;;;;;;19.24;70.07;98973.04;1661446;86;21124;-43
2021/06/09 04:57:38;;;;;;;7.87;5.95;;;;;;;19.29;69.43;98982.16;1661552;86;21186;-43
2021/06/09 05:00:09;;;;;;;6.97;6.28;;;;;;;19.32;68.96;98977.94;1661699;86;21570;-44
2021/06/09 05:02:36;;;;;;;7.25;6.25;;;;;;;19.35;69.21;98979.86;1661628;86;21064;-44
2021/06/09 05:05:03;;;;;;;7.83;5.70;;;;;;;19.41;69.41;98981.50;1661893;86;21017;-44
2021/06/09 05:07:30;;;;;;;5.92;5.37;;;;;;;19.48;68.90;98987.63;1661584;86;21073;-43
2021/06/09 05:09:57;;;;;;;8.03;5.70;;;;;;;19.55;69.24;98987.30;1661771;86;21757;-44
2021/06/09 05:12:44;;;;;;;10.38;5.95;;;;;;;19.64;68.66;98993.75;1634899;86;20926;-44
2021/06/09 05:15:12;;;;;;;8.23;5.67;;;;;;;19.73;68.88;98989.02;1637794;86;20938;-44
2021/06/09 05:17:45;;;;;;;6.53;5.30;;;;;;;19.82;68.55;98990.56;1661498;86;21078;-44
2021/06/09 05:20:23;;;;;;;5.83;4.70;;;;;;;19.88;68.23;98992.97;1661723;86;21527;-44
2021/06/09 05:22:55;;;;;;;9.50;5.30;;;;;;;19.96;68.16;98996.48;1659725;84;21161;-43
2021/06/09 05:25:22;;;;;;;7.95;5.05;;;;;;;20.01;67.73;98988.31;1659068;86;20997;-44
2021/06/09 05:27:48;;;;;;;7.45;4.78;;;;;;;20.06;66.88;98989.77;1659468;86;21116;-43
2021/06/09 05:30:17;;;;;;;7.60;5.42;;;;;;;20.08;66.83;98992.27;1659282;86;21089;-44
2021/06/09 05:32:44;;;;;;;5.03;4.53;;;;;;;20.16;67.23;98996.98;1660134;85;21076;-43
2021/06/09 05:35:11;;;;;;;6.60;4.62;;;;;;;20.26;67.59;98991.20;1687253;85;21123;-43
2021/06/09 05:37:38;;;;;;;4.47;4.08;;;;;;;20.38;67.41;98991.88;1687214;85;20980;-43
2021/06/09 05:40:09;;;;;;;4.42;3.75;;;;;;;20.47;66.97;98988.53;1642214;85;21123;-44
2021/06/09 05:42:36;;;;;;;8.43;4.05;;;;;;;20.52;66.21;98995.48;1687622;85;21509;-44
2021/06/09 05:45:04;;;;;;;6.87;4.37;;;;;;;20.58;65.42;98995.09;1687115;85;21111;-43
2021/06/09 05:47:31;;;;;;;4.37;3.75;;;;;;;20.64;64.87;98991.39;1687256;85;21136;-44
2021/06/09 05:50:20;;;;;;;4.22;3.83;;;;;;;20.71;64.70;98991.80;1687063;85;21006;-44
2021/06/09 05:52:47;;;;;;;5.70;3.80;;;;;;;20.77;64.83;98990.03;1687273;85;21052;-43
2021/06/09 05:55:15;;;;;;;5.33;3.90;;;;;;;20.89;64.58;98993.44;1686980;85;20981;-43
2021/06/09 05:57:44;;;;;;;4.47;4.08;;;;;;;20.98;64.23;98996.92;1687376;85;21077;-44
2021/06/09 06:00:12;;;;;;;4.25;3.85;;;;;;;21.06;63.67;98996.88;1675470;85;21123;-43
2021/06/09 06:02:39;;;;;;;5.80;3.75;;;;;;;21.13;64.25;98996.11;1677781;85;20985;-44
2021/06/09 06:05:08;;;;;;;6.17;3.83;;;;;;;21.22;63.78;98994.84;1686675;85;21064;-40
2021/06/09 06:07:35;;;;;;;3.53;3.20;;;;;;;21.36;63.31;98994.23;1666364;85;21057;-44
2021/06/09 06:10:05;;;;;;;5.90;3.33;;;;;;;21.47;62.83;98996.07;1671552;85;21129;-44
2021/06/09 06:12:32;;;;;;;6.03;3.72;;;;;;;21.52;62.08;98994.14;1659761;86;21104;-44
2021/06/09 06:15:00;;;;;;;4.60;2.90;;;;;;;21.56;62.02;98996.18;1673370;85;21532;-43
2021/06/09 06:17:27;;;;;;;4.28;3.15;;;;;;;21.58;61.51;98993.16;1665683;85;20997;-43
2021/06/09 06:19:53;;;;;;;2.83;2.62;;;;;;;21.60;61.20;98995.45;1687092;85;21076;-44
2021/06/09 06:22:20;;;;;;;6.05;2.92;;;;;;;21.68;61.35;98996.19;1678783;84;21073;-44
2021/06/09 06:24:49;;;;;;;4.58;2.87;;;;;;;21.78;61.36;98992.92;1659332;86;21121;-44
2021/06/09 06:27:17;;;;;;;4.80;2.80;;;;;;;21.84;60.27;99000.78;1674225;85;20978;-44
2021/06/09 06:29:45;;;;;;;3.77;3.10;;;;;;;21.86;60.18;99001.13;1686155;84;21576;-43
2021/06/09 06:32:14;;;;;;;4.37;2.50;;;;;;;21.91;60.79;99001.95;1659892;85;21017;-44
2021/06/09 06:37:26;;;;;;;4.45;3.00;;;;;;;22.09;58.52;99005.52;1780625;78;23139;-44
2021/06/09 06:39:53;;;;;;;5.20;2.67;;;;;;;22.03;57.90;98997.02;1752879;80;21025;-44
2021/06/09 06:42:20;;;;;;;3.47;2.77;;;;;;;22.08;57.81;99001.20;1735536;80;21538;-43
2021/06/09 06:44:47;;;;;;;4.22;3.00;;;;;;;22.12;58.64;98997.74;1750161;80;21510;-44
2021/06/09 06:47:15;;;;;;;5.53;2.90;;;;;;;22.16;58.09;98997.61;1785305;80;20918;-44
2021/06/09 06:49:43;;;;;;;4.30;2.80;;;;;;;22.20;58.56;98997.66;1780313;80;20943;-44
2021/06/09 06:52:10;;;;;;;3.12;2.70;;;;;;;22.24;57.33;98994.77;1756948;81;21031;-44
2021/06/09 06:54:36;;;;;;;3.10;2.40;;;;;;;22.31;57.76;98991.77;1727398;81;21139;-45
2021/06/09 06:57:03;;;;;;;5.22;2.90;;;;;;;22.35;56.28;98989.05;1727731;80;20993;-44
2021/06/09 06:59:30;;;;;;;3.87;2.65;;;;;;;22.39;55.92;98994.44;1727761;80;20953;-44
2021/06/09 07:01:57;;;;;;;3.17;2.50;;;;;;;22.43;56.78;98989.56;1729250;80;21544;-44
2021/06/09 07:04:24;;;;;;;3.75;2.37;;;;;;;22.46;56.20;98989.42;1751717;80;21005;-44
2021/06/09 07:06:51;;;;;;;3.55;2.45;;;;;;;22.54;56.28;98987.20;1728138;80;21212;-43
2021/06/09 07:09:19;;;;;;;4.65;2.35;;;;;;;22.62;56.26;98991.84;1726933;82;20906;-44
2021/06/09 07:11:48;;;;;;;3.17;2.87;;;;;;;22.71;56.30;98982.27;1727896;80;21508;-44
2021/06/09 07:14:15;;;;;;;5.87;2.55;;;;;;;22.78;55.86;98986.94;1726946;83;20984;-44
2021/06/09 07:16:43;;;;;;;3.95;2.83;;;;;;;22.87;56.14;98988.98;1727839;81;21025;-44
2021/06/09 07:19:10;;;;;;;3.10;2.67;;;;;;;22.93;54.23;98986.58;1727104;83;21146;-43
2021/06/09 07:21:40;;;;;;;5.20;2.80;;;;;;;22.99;55.22;98987.38;1750319;81;21012;-44
2021/06/09 07:24:08;;;;;;;3.52;2.62;;;;;;;23.05;53.79;98988.31;1756037;81;21535;-43
2021/06/09 07:26:43;;;;;;;3.83;2.80;;;;;;;23.09;54.07;98988.34;1756326;81;21020;-43
2021/06/09 07:29:10;;;;;;;2.90;2.58;;;;;;;23.17;53.30;98986.09;1756978;81;20964;-43
2021/06/09 07:31:39;;;;;;;3.77;3.08;;;;;;;23.24;54.20;98985.80;1756800;81;21451;-43
2021/06/09 07:34:07;;;;;;;3.23;2.93;;;;;;;23.32;53.26;98985.09;1753217;80;21346;-43
2021/06/09 07:36:49;;;;;;;7.20;3.08;;;;;;;23.43;53.90;98990.83;1720800;81;20867;-43
2021/06/09 07:39:31;;;;;;;5.83;2.90;;;;;;;23.53;54.15;98991.80;1679413;84;21031;-44
2021/06/09 07:42:02;;;;;;;2.92;2.60;;;;;;;23.67;54.53;98999.53;1693722;83;21043;-43
2021/06/09 07:44:29;;;;;;;3.25;2.42;;;;;;;23.78;53.80;98990.20;1707454;82;21725;-44
2021/06/09 07:46:56;;;;;;;3.10;2.72;;;;;;;23.89;53.34;98989.77;1676805;83;21002;-43
2021/06/09 07:49:23;;;;;;;4.25;2.65;;;;;;;24.02;52.87;98989.63;1707116;83;20969;-42
2021/06/09 07:51:50;;;;;;;3.83;2.65;;;;;;;24.10;51.57;98986.73;1688955;83;21038;-42
2021/06/09 07:54:17;;;;;;;3.08;2.77;;;;;;;24.19;51.17;98989.54;1680813;84;21654;-42
2021/06/09 07:56:44;;;;;;;4.12;2.80;;;;;;;24.25;50.58;98992.60;1671044;83;21166;-42
2021/06/09 07:59:13;;;;;;;2.77;2.40;;;;;;;24.30;49.56;98993.25;1673022;85;21037;-42
2021/06/09 08:01:43;;;;;;;4.30;2.72;;;;;;;24.35;48.73;98997.53;1678256;85;21013;-42
2021/06/09 08:04:13;;;;;;;7.62;3.72;;;;;;;24.39;50.07;99000.17;1712513;82;21025;-42
2021/06/09 08:06:43;;;;;;;2.67;2.37;;;;;;;24.47;50.12;98995.86;1731433;80;21044;-42
2021/06/09 08:09:10;;;;;;;4.12;2.55;;;;;;;24.57;49.10;98998.17;1713629;80;21661;-42
2021/06/09 08:11:37;;;;;;;3.27;2.95;;;;;;;24.67;48.40;98996.94;1730376;82;21492;-42
2021/06/09 08:14:04;;;;;;;4.97;2.67;;;;;;;24.76;47.93;98995.37;1727931;82;21009;-42
2021/06/09 08:16:32;;;;;;;6.72;3.00;;;;;;;24.84;48.28;98995.97;1708105;81;22125;-42
2021/06/09 08:19:05;;;;;;;6.20;3.35;;;;;;;24.95;49.29;99005.23;1743316;82;21108;-43
2021/06/09 08:21:33;;;;;;;3.87;2.70;;;;;;;25.02;48.37;98996.60;1731736;82;21203;-42
2021/06/09 08:24:01;;;;;;;3.92;2.90;;;;;;;25.07;48.66;99002.30;1713667;82;21017;-43
2021/06/09 08:26:27;;;;;;;4.78;2.70;;;;;;;25.13;47.56;99007.95;1713725;83;21040;-43
2021/06/09 08:28:56;;;;;;;5.15;2.85;;;;;;;25.20;47.52;99003.48;1679139;85;21105;-43
2021/06/09 08:31:29;;;;;;;3.67;2.65;;;;;;;25.27;47.28;99003.78;1714001;83;21037;-43
2021/06/09 08:33:57;;;;;;;3.62;2.80;;;;;;;25.35;47.21;98998.04;1698672;84;21222;-43
2021/06/09 08:36:24;;;;;;;2.90;2.60;;;;;;;25.46;47.63;98999.06;1705264;82;21467;-42
2021/06/09 08:38:54;;;;;;;2.83;2.58;;;;;;;25.58;46.60;98995.19;1689250;83;20964;-44
2021/06/09 08:41:24;;;;;;;3.50;2.72;;;;;;;25.67;45.98;99000.70;1695603;83;21088;-44
2021/06/09 08:43:51;;;;;;;3.17;2.72;;;;;;;25.73;45.78;98994.05;1722416;80;21079;-44
2021/06/09 08:46:18;;;;;;;3.80;2.62;;;;;;;25.82;45.44;98997.38;1734449;80;21184;-44
2021/06/09 08:48:46;;;;;;;3.10;2.80;;;;;;;25.92;45.71;98998.25;1751053;80;20961;-44
2021/06/09 08:51:16;;;;;;;3.95;2.80;;;;;;;26.01;45.73;98995.26;1747307;80;20966;-44
2021/06/09 08:53:46;;;;;;;3.40;2.65;;;;;;;26.13;46.12;98992.88;1713924;83;21035;-44
2021/06/09 08:56:13;;;;;;;4.37;2.67;;;;;;;26.25;44.93;98994.05;1715294;83;20957;-44
2021/06/09 08:58:40;;;;;;;3.47;2.50;;;;;;;26.37;45.72;98986.09;1750952;81;21139;-44
2021/06/09 09:01:08;;;;;;;3.70;2.58;;;;;;;26.46;45.63;98990.03;1750653;82;21034;-44
2021/06/09 09:03:36;;;;;;;2.60;2.40;;;;;;;26.50;44.85;98985.81;1743540;82;21479;-44
2021/06/09 09:06:03;;;;;;;3.85;2.58;;;;;;;26.50;44.49;98987.20;1733433;80;21617;-44
2021/06/09 09:08:30;;;;;;;2.75;2.55;;;;;;;26.49;44.61;98983.50;1720912;83;20937;-44
2021/06/09 09:10:57;;;;;;;4.05;2.90;;;;;;;26.48;44.93;98978.56;1694887;83;21851;-44
2021/06/09 09:13:25;;;;;;;5.05;2.25;;;;;;;26.47;44.15;98975.66;1750264;82;20995;-44
2021/06/09 09:15:53;;;;;;;2.62;2.42;;;;;;;26.42;44.31;98979.10;1749036;80;21006;-44
2021/06/09 09:18:19;;;;;;;3.60;2.60;;;;;;;26.45;44.26;98970.42;1750988;82;21018;-44
2021/06/09 09:20:48;;;;;;;5.62;2.70;;;;;;;26.48;45.76;98964.66;1742266;80;21103;-44
2021/06/09 09:23:28;;;;;;;3.17;2.80;;;;;;;26.58;46.06;98968.13;1751079;82;21547;-44
2021/06/09 09:25:57;;;;;;;3.35;2.67;;;;;;;26.68;44.47;98964.02;1715141;83;21048;-44
2021/06/09 09:28:33;;;;;;;7.22;2.85;;;;;;;26.66;43.31;98958.19;1714641;83;21057;-43
2021/06/09 09:31:13;;;;;;;3.17;2.62;;;;;;;26.63;43.62;98961.91;1714536;83;20967;-43
2021/06/09 09:33:39;;;;;;;5.25;3.15;;;;;;;26.50;43.64;98958.02;1741144;82;20996;-43
2021/06/09 09:36:29;;;;;;;5.87;2.83;;;;;;;26.35;43.90;98969.11;1735936;82;21136;-43
2021/06/09 09:38:57;;;;;;;;;;;;;;;26.25;44.71;98959.30;1681465;85;21570;-43
2021/06/09 09:41:32;;;;;;;3.10;2.70;;;;;;;26.28;44.05;98951.42;1668116;83;20238;-43
2021/06/09 09:44:01;;;;;;;3.33;2.70;;;;;;;26.27;44.55;98945.72;1691245;83;21718;-43
2021/06/09 09:46:33;;;;;;;4.42;2.70;;;;;;;26.38;45.33;98943.78;1706792;84;21501;-43
2021/06/09 09:49:09;;;;;;;4.08;2.95;;;;;;;26.41;44.79;98936.48;1707167;84;21157;-43
2021/06/09 09:51:41;;;;;;;5.97;3.83;;;;;;;26.32;44.18;98944.28;1707488;84;21487;-43
2021/06/09 09:54:07;;;;;;;3.37;3.08;;;;;;;26.17;44.38;98938.66;1707023;84;21058;-43
2021/06/09 09:56:37;;;;;;;3.10;2.80;;;;;;;26.10;43.58;98936.23;1707343;84;21033;-43
2021/06/09 09:59:12;;;;;;;6.43;5.80;;;;;;;26.07;44.30;98926.70;1707550;84;21100;-43
2021/06/09 10:01:54;;;;;;;4.70;2.92;;;;;;;26.14;44.19;98922.92;1707359;83;21964;-43
2021/06/09 10:04:19;;;;;;;6.30;3.25;;;;;;;26.19;44.33;98922.27;1704266;84;21547;-43
2021/06/09 10:06:50;;;;;;;4.95;3.15;;;;;;;26.29;44.17;98919.59;1707321;83;22186;-43
2021/06/09 10:09:23;;;;;;;4.78;2.85;;;;;;;26.44;44.65;98918.84;1707478;84;21093;-43
2021/06/09 10:12:02;;;;;;;4.75;3.30;;;;;;;26.65;42.96;98916.33;1707547;84;21007;-43
2021/06/09 10:14:41;;;;;;;6.15;3.45;;;;;;;26.82;42.81;98911.19;1707171;84;21149;-43
2021/06/09 10:17:19;;;;;;;4.75;3.55;;;;;;;26.98;43.05;98911.35;1707198;83;21571;-43
2021/06/09 10:19:58;;;;;;;6.35;3.17;;;;;;;27.10;42.69;98904.73;1707243;84;20977;-43
2021/06/09 10:22:37;;;;;;;6.25;3.70;;;;;;;27.21;42.12;98900.70;1705937;83;21029;-43
2021/06/09 10:25:09;;;;;;;5.58;4.28;;;;;;;27.32;42.15;98898.72;1707271;84;21013;-43
2021/06/09 10:27:51;;;;;;;4.72;3.55;;;;;;;27.39;42.38;98898.95;1707269;84;21148;-43
2021/06/09 10:30:24;;;;;;;5.92;4.20;;;;;;;27.41;42.07;98900.60;1707028;84;20946;-43
2021/06/09 10:33:00;;;;;;;4.58;4.03;;;;;;;27.38;42.57;98905.14;1707011;83;21089;-43
2021/06/09 10:35:36;;;;;;;6.58;3.72;;;;;;;27.38;41.24;98904.37;1706636;84;20966;-43
2021/06/09 10:38:03;;;;;;;6.15;3.60;;;;;;;27.37;41.25;98904.98;1711135;83;21089;-43
2021/06/09 10:40:32;;;;;;;4.17;3.47;;;;;;;27.46;41.57;98897.13;1712653;83;21906;-43
2021/06/09 10:43:01;;;;;;;4.50;3.50;;;;;;;27.63;39.50;98882.86;1712986;83;21030;-43
2021/06/09 10:45:28;;;;;;;3.90;3.10;;;;;;;27.75;40.37;98891.48;1712610;83;21037;-43
2021/06/09 10:47:57;;;;;;;4.50;3.60;;;;;;;27.79;38.99;98886.46;1712774;83;21018;-43
2021/06/09 10:50:24;;;;;;;4.92;3.50;;;;;;;27.83;39.98;98887.04;1712660;83;21582;-43
2021/06/09 10:52:52;;;;;;;4.45;3.27;;;;;;;27.87;40.52;98881.25;1713106;83;21119;-43
2021/06/09 10:55:19;;;;;;;3.62;2.90;;;;;;;28.05;40.40;98871.96;1712417;83;21104;-43
2021/06/09 10:57:45;;;;;;;5.95;3.60;;;;;;;28.21;39.20;98875.45;1712879;83;21037;-43
2021/06/09 11:00:14;;;;;;;5.20;3.50;;;;;;;28.19;40.33;98876.56;1712696;83;21069;-43
2021/06/09 11:02:42;;;;;;;4.47;2.90;;;;;;;28.21;40.59;98872.67;1713131;83;21047;-43
2021/06/09 11:05:11;;;;;;;3.47;3.00;;;;;;;28.38;40.74;98873.59;1712781;83;21864;-43
2021/06/09 11:07:40;;;;;;;5.78;3.30;;;;;;;28.64;39.98;98868.77;1713247;83;20977;-43
2021/06/09 11:10:19;;;;;;;3.55;3.25;;;;;;;28.91;38.62;98868.25;1712735;83;20941;-44
2021/06/09 11:12:49;;;;;;;3.52;3.22;;;;;;;29.08;37.84;98857.84;1712362;83;21053;-44
2021/06/09 11:15:22;;;;;;;3.72;2.95;;;;;;;29.09;37.92;98856.59;1713004;83;21112;-44
2021/06/09 11:17:56;;;;;;;3.65;3.10;;;;;;;29.18;36.33;98859.95;1712865;83;21154;-44
2021/06/09 11:20:32;;;;;;;3.65;2.80;;;;;;;29.15;36.63;98851.16;1712819;83;21527;-44
2021/06/09 11:23:08;;;;;;;2.85;2.55;;;;;;;29.05;36.80;98856.80;1713028;83;21093;-44
2021/06/09 11:25:43;;;;;;;3.45;2.90;;;;;;;29.09;36.62;98845.42;1712614;83;21051;-44
2021/06/09 11:28:20;;;;;;;4.17;2.98;;;;;;;29.24;35.72;98836.26;1712873;83;21106;-44
2021/06/09 11:30:57;;;;;;;4.85;3.33;;;;;;;29.46;36.85;98832.20;1712947;83;21791;-44
2021/06/09 11:33:37;;;;;;;5.83;3.10;;;;;;;29.82;36.21;98827.79;1696042;83;21077;-44
2021/06/09 11:36:19;;;;;;;;;;;;;;;29.96;34.77;98823.28;1686698;85;21617;-44
2021/06/09 11:38:59;;;;;;;2.98;2.67;;;;;;;29.87;33.94;98824.22;1684054;85;20134;-44
2021/06/09 11:41:39;;;;;;;3.62;2.87;;;;;;;29.66;34.57;98811.09;1684126;85;21069;-44
2021/06/09 11:44:07;;;;;;;3.17;2.70;;;;;;;29.71;33.62;98818.73;1684194;85;21127;-44
2021/06/09 11:46:37;;;;;;;2.62;2.30;;;;;;;29.97;33.00;98812.97;1700915;83;21053;-44
2021/06/09 11:49:14;;;;;;;3.52;2.52;;;;;;;30.32;32.98;98808.33;1712618;83;20976;-44
2021/06/09 11:51:45;;;;;;;3.12;2.33;;;;;;;30.54;32.00;98801.39;1712419;83;20982;-44
2021/06/09 11:54:28;;;;;;;3.35;2.50;;;;;;;30.79;32.38;98802.36;1712748;83;21020;-44